Time;durP1;ratioP1;P1;durP2;ratioP2;P2;SDS_P1;SDS_P2;PMS_P1;PMS_P2;Temp;Humidity;BMP_temperature;BMP_pressure;BME280_temperature;BME280_humidity;BME280_pressure;Samples;Min_cycle;Max_cycle;Signal;HPM_P1;HPM_P2
2023/10/06 00:01:49;;;;;;;9.38;5.80;;;;;;;17.89;100.00;99429.19;5118672;28;20492;-93
2023/10/06 00:04:22;;;;;;;11.35;6.03;;;;;;;17.74;100.00;99403.84;5100918;28;20463;-93
2023/10/06 00:06:51;;;;;;;10.85;6.20;;;;;;;17.86;100.00;99405.97;5100513;28;20442;-93
2023/10/06 00:12:16;;;;;;;13.02;6.68;;;;;;;17.82;100.00;99416.94;5156020;27;20390;-94
2023/10/06 00:14:43;;;;;;;9.85;5.50;;;;;;;17.65;100.00;99418.56;5138119;27;20084;-95
2023/10/06 00:17:17;;;;;;;10.02;5.55;;;;;;;17.70;100.00;99434.50;5136799;27;20121;-93
2023/10/06 00:19:43;;;;;;;14.10;6.53;;;;;;;17.57;100.00;99407.28;5139952;27;20074;-94
2023/10/06 00:24:59;;;;;;;11.95;6.45;;;;;;;17.62;100.00;99410.63;5109956;27;20396;-95
2023/10/06 00:27:29;;;;;;;10.55;6.68;;;;;;;17.56;100.00;99408.22;5105157;28;20052;-93
2023/10/06 00:29:56;;;;;;;10.88;6.82;;;;;;;17.48;100.00;99386.22;5106017;28;20069;-96
2023/10/06 00:32:22;;;;;;;12.95;7.10;;;;;;;17.39;100.00;99366.00;5122620;27;20048;-94
2023/10/06 00:34:49;;;;;;;12.77;7.18;;;;;;;17.42;100.00;99370.34;5098389;28;20032;-94
2023/10/06 00:37:15;;;;;;;10.75;6.38;;;;;;;17.37;100.00;99357.13;5104619;28;20046;-94
2023/10/06 00:39:42;;;;;;;10.70;6.13;;;;;;;17.44;100.00;99389.97;5126747;28;20103;-92
2023/10/06 00:42:14;;;;;;;10.85;6.38;;;;;;;17.27;100.00;99371.03;5102564;28;20397;-93
2023/10/06 00:44:45;;;;;;;11.02;7.65;;;;;;;17.08;100.00;99352.16;5096238;28;20131;-94
2023/10/06 00:47:13;;;;;;;11.68;7.25;;;;;;;17.35;100.00;99410.09;5102935;28;20062;-94
2023/10/06 00:49:39;;;;;;;12.98;7.20;;;;;;;17.20;100.00;99408.94;5104639;28;20039;-94
2023/10/06 00:52:07;;;;;;;14.68;7.47;;;;;;;17.00;100.00;99377.56;5100434;28;20015;-94
2023/10/06 00:54:33;;;;;;;14.38;8.23;;;;;;;17.23;100.00;99416.00;5107309;28;20046;-93
2023/10/06 00:57:08;;;;;;;14.73;8.68;;;;;;;17.23;100.00;99424.06;5105698;28;20036;-94
2023/10/06 00:59:36;;;;;;;12.07;7.60;;;;;;;17.11;100.00;99395.91;5107889;28;20036;-95
2023/10/06 01:02:02;;;;;;;11.77;6.78;;;;;;;17.41;100.00;99434.00;5102727;28;20035;-93
2023/10/06 01:04:34;;;;;;;15.38;8.00;;;;;;;17.21;100.00;99399.06;5104354;28;20556;-94
2023/10/06 01:07:00;;;;;;;11.90;8.02;;;;;;;17.28;100.00;99416.66;5110967;28;20050;-95
2023/10/06 01:09:33;;;;;;;13.35;6.95;;;;;;;17.34;100.00;99435.19;5099621;28;20123;-94
2023/10/06 01:12:00;;;;;;;11.05;5.60;;;;;;;17.26;100.00;99426.59;5104540;28;20451;-95
2023/10/06 01:14:27;;;;;;;11.13;6.28;;;;;;;17.23;100.00;99429.44;5105155;28;20101;-93
2023/10/06 01:17:08;;;;;;;11.52;7.18;;;;;;;17.01;100.00;99405.31;5107724;28;20074;-94
2023/10/06 01:19:33;;;;;;;10.73;6.88;;;;;;;16.80;100.00;99369.47;5101011;28;20036;-94
2023/10/06 01:22:22;;;;;;;10.77;7.03;;;;;;;16.92;100.00;99377.03;5104531;28;20071;-94
2023/10/06 01:24:47;;;;;;;12.32;7.35;;;;;;;16.77;100.00;99383.03;5089235;28;20148;-95
2023/10/06 01:27:13;;;;;;;9.52;6.68;;;;;;;16.83;100.00;99388.19;5107956;28;20161;-93
2023/10/06 01:29:42;;;;;;;12.93;7.40;;;;;;;16.84;100.00;99387.22;5103800;28;20040;-94
2023/10/06 01:32:09;;;;;;;13.18;7.18;;;;;;;16.95;100.00;99425.25;5107468;28;20050;-93
2023/10/06 01:34:39;;;;;;;11.88;7.20;;;;;;;16.64;100.00;99421.13;5107527;28;20044;-94
2023/10/06 01:37:04;;;;;;;;;;;;;;;16.81;100.00;99444.63;5092164;28;20516;-94
2023/10/06 01:39:32;;;;;;;13.15;8.10;;;;;;;16.77;100.00;99426.88;5089332;28;19920;-94
2023/10/06 01:42:04;;;;;;;11.55;7.22;;;;;;;16.67;100.00;99403.16;5091395;28;20036;-91
2023/10/06 01:44:30;;;;;;;11.73;6.68;;;;;;;16.86;100.00;99414.88;5088821;28;20488;-94
2023/10/06 01:46:57;;;;;;;12.15;7.25;;;;;;;16.76;100.00;99392.91;5084753;28;20048;-94
2023/10/06 01:49:23;;;;;;;11.48;6.93;;;;;;;16.84;100.00;99406.88;5090790;28;20035;-92
2023/10/06 01:51:50;;;;;;;12.52;7.50;;;;;;;16.87;100.00;99405.88;5087628;28;20561;-94
2023/10/06 01:54:18;;;;;;;12.63;7.50;;;;;;;16.98;100.00;99392.88;5085277;28;20051;-94
2023/10/06 01:56:44;;;;;;;14.25;7.78;;;;;;;16.99;100.00;99400.00;5109813;28;20047;-94
2023/10/06 01:59:15;;;;;;;10.82;7.38;;;;;;;17.10;100.00;99420.16;5087272;28;20515;-94
2023/10/06 02:01:41;;;;;;;11.13;6.82;;;;;;;17.03;100.00;99403.44;5091238;28;20044;-93
2023/10/06 02:04:10;;;;;;;11.48;7.78;;;;;;;16.96;100.00;99373.28;5096057;28;20055;-94
2023/10/06 02:06:37;;;;;;;11.05;7.53;;;;;;;16.82;100.00;99347.00;5083609;28;20075;-93
2023/10/06 02:09:08;;;;;;;13.63;6.93;;;;;;;16.88;100.00;99367.34;5089037;28;20040;-94
2023/10/06 02:11:34;;;;;;;11.20;6.32;;;;;;;16.82;100.00;99359.56;5093473;28;20550;-95
2023/10/06 02:14:00;;;;;;;12.77;7.45;;;;;;;16.57;100.00;99352.53;5091064;28;20036;-94
2023/10/06 02:16:27;;;;;;;12.88;7.20;;;;;;;16.58;100.00;99326.53;5088068;28;20043;-94
2023/10/06 02:18:54;;;;;;;12.18;7.90;;;;;;;16.86;100.00;99368.38;5082338;28;20062;-94
2023/10/06 02:21:24;;;;;;;13.35;8.00;;;;;;;16.61;100.00;99338.03;5096292;28;20044;-93
2023/10/06 02:23:51;;;;;;;;;;;;;;;16.99;100.00;99405.38;5085730;28;20528;-93
2023/10/06 02:26:17;;;;;;;12.70;7.63;;;;;;;16.93;100.00;99392.19;5084643;28;19920;-94
2023/10/06 02:28:48;;;;;;;10.85;7.70;;;;;;;16.98;100.00;99392.88;5090084;28;20064;-94
2023/10/06 02:31:14;;;;;;;13.10;7.47;;;;;;;17.04;100.00;99406.06;5090851;28;20033;-95
2023/10/06 02:33:46;;;;;;;10.75;6.78;;;;;;;16.88;100.00;99396.91;5093106;28;20051;-93
2023/10/06 02:36:15;;;;;;;10.40;6.35;;;;;;;16.89;100.00;99393.25;5092848;28;20071;-94
2023/10/06 02:38:46;;;;;;;11.30;6.40;;;;;;;16.71;100.00;99385.97;5094449;28;20424;-93
2023/10/06 02:41:19;;;;;;;11.20;6.63;;;;;;;16.66;100.00;99387.97;5089671;28;20087;-94
2023/10/06 02:43:47;;;;;;;10.80;7.10;;;;;;;16.64;100.00;99383.53;5090970;28;20064;-93
2023/10/06 02:46:14;;;;;;;10.75;6.95;;;;;;;16.54;100.00;99363.38;5093099;28;20139;-92
2023/10/06 02:48:48;;;;;;;9.88;6.68;;;;;;;16.46;100.00;99368.22;5082503;28;20054;-95
2023/10/06 02:51:30;;;;;;;11.55;7.95;;;;;;;16.48;100.00;99395.88;5090911;28;20481;-94
2023/10/06 02:54:09;;;;;;;;;;;;;;;16.72;100.00;99422.59;5091000;28;20024;-95
2023/10/06 02:56:36;;;;;;;13.10;7.68;;;;;;;16.47;100.00;99382.50;5086343;28;19904;-94
2023/10/06 02:59:20;;;;;;;9.63;7.07;;;;;;;16.53;100.00;99418.03;5085609;28;20036;-94
2023/10/06 03:01:52;;;;;;;9.60;7.15;;;;;;;16.49;100.00;99392.22;5094030;28;20020;-93
2023/10/06 03:04:26;;;;;;;11.60;6.90;;;;;;;16.58;100.00;99410.63;5089465;28;20042;-94
2023/10/06 03:06:53;;;;;;;11.75;7.63;;;;;;;16.51;100.00;99403.78;5083280;28;20108;-94
2023/10/06 03:09:21;;;;;;;10.52;7.07;;;;;;;16.37;100.00;99384.66;5091007;28;20086;-93
2023/10/06 03:11:49;;;;;;;10.63;6.93;;;;;;;16.47;100.00;99403.97;5082400;28;20070;-94
2023/10/06 03:14:24;;;;;;;13.25;8.10;;;;;;;16.47;100.00;99391.41;5098905;28;20048;-93
2023/10/06 03:16:51;;;;;;;11.32;7.40;;;;;;;16.38;100.00;99370.34;5082519;28;20131;-95
2023/10/06 03:19:18;;;;;;;11.80;6.55;;;;;;;16.50;100.00;99380.53;5091273;28;20020;-94
2023/10/06 03:21:48;;;;;;;9.38;6.18;;;;;;;16.35;100.00;99351.66;5106245;28;20147;-92
2023/10/06 03:24:25;;;;;;;14.40;7.85;;;;;;;16.67;100.00;99408.50;5087373;28;20045;-93
2023/10/06 03:26:51;;;;;;;14.40;7.57;;;;;;;16.35;100.00;99352.56;5087273;28;20040;-94
2023/10/06 03:29:51;;;;;;;12.20;7.68;;;;;;;16.52;100.00;99397.47;5086437;28;20070;-92
2023/10/06 03:32:11;;;;;;;11.70;7.32;;;;;;;16.53;100.00;99395.69;5070654;28;20044;-92
2023/10/06 03:34:38;;;;;;;12.50;7.32;;;;;;;16.60;100.00;99389.97;5087444;28;20066;-94
2023/10/06 03:37:10;;;;;;;11.35;7.47;;;;;;;16.58;100.00;99394.53;5090866;28;20036;-94
2023/10/06 03:39:47;;;;;;;11.88;6.85;;;;;;;16.66;100.00;99406.78;5096694;28;20408;-94
2023/10/06 03:42:18;;;;;;;15.57;7.90;;;;;;;16.44;100.00;99372.78;5091067;28;20127;-94
2023/10/06 03:44:45;;;;;;;13.40;8.07;;;;;;;16.47;100.00;99380.69;5093331;28;20086;-93
2023/10/06 03:47:11;;;;;;;12.63;7.70;;;;;;;16.41;100.00;99370.19;5088612;28;20531;-95
2023/10/06 03:49:37;;;;;;;10.65;6.57;;;;;;;16.40;100.00;99376.50;5091808;28;20044;-94
2023/10/06 03:52:09;;;;;;;12.20;7.45;;;;;;;16.28;100.00;99371.63;5093895;28;20058;-95
2023/10/06 03:54:36;;;;;;;12.43;7.72;;;;;;;16.30;100.00;99377.81;5089046;28;20044;-93
2023/10/06 03:57:04;;;;;;;14.50;8.35;;;;;;;16.08;100.00;99351.84;5092812;28;20036;-94
2023/10/06 03:59:30;;;;;;;10.85;6.40;;;;;;;16.31;100.00;99407.28;5078957;28;20513;-94
2023/10/06 04:01:55;;;;;;;10.90;7.43;;;;;;;16.33;100.00;99410.78;5099668;28;20028;-94
2023/10/06 04:04:22;;;;;;;11.23;7.10;;;;;;;16.16;100.00;99389.13;5091234;28;20040;-93
2023/10/06 04:06:48;;;;;;;15.55;8.00;;;;;;;16.10;100.00;99390.22;5090405;28;20047;-94
2023/10/06 04:09:22;;;;;;;11.77;7.43;;;;;;;16.23;100.00;99417.44;5088746;28;20040;-93
2023/10/06 04:11:49;;;;;;;15.00;8.05;;;;;;;15.95;100.00;99386.34;5089855;28;20036;-94
2023/10/06 04:14:15;;;;;;;12.63;6.45;;;;;;;16.16;100.00;99413.28;5088260;28;20024;-93
2023/10/06 04:16:50;;;;;;;12.02;7.47;;;;;;;16.13;100.00;99416.91;5086433;28;20489;-92
2023/10/06 04:19:16;;;;;;;12.40;8.20;;;;;;;16.16;100.00;99430.22;5090693;28;20063;-93
2023/10/06 04:21:42;;;;;;;11.32;7.60;;;;;;;15.90;100.00;99392.84;5082713;28;20060;-95
2023/10/06 04:24:08;;;;;;;12.30;8.20;;;;;;;16.00;100.00;99413.88;5101015;28;20048;-92
2023/10/06 04:26:34;;;;;;;13.90;7.05;;;;;;;16.04;100.00;99425.34;5079127;28;20060;-92
2023/10/06 04:29:04;;;;;;;12.38;7.00;;;;;;;15.88;100.00;99402.75;5086029;28;20063;-93
2023/10/06 04:31:29;;;;;;;9.90;6.97;;;;;;;15.82;100.00;99395.78;5084588;28;20033;-93
2023/10/06 04:33:55;;;;;;;12.25;6.40;;;;;;;15.97;100.00;99413.09;5103182;28;20444;-94
2023/10/06 04:36:23;;;;;;;11.52;7.72;;;;;;;15.95;100.00;99406.94;5091883;28;20040;-92
2023/10/06 04:38:48;;;;;;;10.32;6.80;;;;;;;15.63;100.00;99363.41;5086578;28;20032;-93
2023/10/06 04:41:14;;;;;;;12.43;7.22;;;;;;;15.92;100.00;99423.16;5103755;28;20520;-93
2023/10/06 04:43:48;;;;;;;11.93;7.88;;;;;;;15.85;100.00;99413.56;5091026;28;20036;-94
2023/10/06 04:46:15;;;;;;;12.75;7.40;;;;;;;15.86;100.00;99413.53;5087602;28;20059;-92
2023/10/06 04:48:41;;;;;;;12.30;8.20;;;;;;;15.88;100.00;99433.13;5080583;28;20040;-92
2023/10/06 04:51:09;;;;;;;12.38;7.47;;;;;;;15.78;100.00;99419.16;5109152;28;20123;-95
2023/10/06 04:53:36;;;;;;;11.10;6.55;;;;;;;15.72;100.00;99392.59;5085071;28;20044;-93
2023/10/06 04:56:03;;;;;;;13.45;8.10;;;;;;;15.53;100.00;99362.91;5093751;28;20027;-94
2023/10/06 04:58:29;;;;;;;13.68;8.00;;;;;;;15.52;100.00;99358.44;5086478;28;20047;-94
2023/10/06 05:00:59;;;;;;;11.60;7.20;;;;;;;15.92;100.00;99424.03;5096096;28;20053;-93
2023/10/06 05:03:27;;;;;;;13.75;6.97;;;;;;;15.51;100.00;99356.72;5086727;28;20037;-93
2023/10/06 05:05:55;;;;;;;13.73;7.15;;;;;;;15.66;100.00;99392.81;5089635;28;20044;-94
2023/10/06 05:08:21;;;;;;;13.63;8.02;;;;;;;15.43;100.00;99364.16;5088874;28;20037;-94
2023/10/06 05:10:49;;;;;;;10.70;7.15;;;;;;;15.64;100.00;99388.44;5092354;28;20139;-95
2023/10/06 05:13:16;;;;;;;13.32;8.23;;;;;;;15.79;100.00;99391.44;5098288;28;20044;-94
2023/10/06 05:15:43;;;;;;;12.00;6.70;;;;;;;15.75;100.00;99370.16;5091464;28;20393;-93
2023/10/06 05:18:15;;;;;;;13.27;6.70;;;;;;;15.76;100.00;99369.22;5100380;28;20439;-94
2023/10/06 05:20:43;;;;;;;12.52;6.78;;;;;;;16.08;100.00;99418.91;5087907;28;20028;-93
2023/10/06 05:23:11;;;;;;;12.27;7.07;;;;;;;16.05;100.00;99420.84;5086257;28;20037;-95
2023/10/06 05:25:37;;;;;;;15.23;7.88;;;;;;;16.14;100.00;99426.72;5085243;28;20058;-91
2023/10/06 05:28:04;;;;;;;13.75;8.05;;;;;;;16.15;100.00;99422.22;5086034;28;20131;-94
2023/10/06 05:30:31;;;;;;;13.20;8.10;;;;;;;16.16;100.00;99429.38;5093506;28;20040;-93
2023/10/06 05:32:58;;;;;;;13.68;6.78;;;;;;;16.20;100.00;99428.31;5087960;28;20477;-92
2023/10/06 05:35:24;;;;;;;16.35;7.15;;;;;;;16.26;100.00;99436.09;5094543;28;20060;-92
2023/10/06 05:37:53;;;;;;;10.05;7.05;;;;;;;16.21;100.00;99412.13;5092802;28;20050;-93
2023/10/06 05:40:20;;;;;;;13.20;7.95;;;;;;;16.42;100.00;99436.38;5086456;28;20110;-92
2023/10/06 05:42:49;;;;;;;11.57;7.10;;;;;;;16.52;100.00;99423.44;5093022;28;20130;-92
2023/10/06 05:45:15;;;;;;;15.07;7.20;;;;;;;16.47;100.00;99423.63;5088711;28;20431;-92
2023/10/06 05:47:48;;;;;;;17.02;8.18;;;;;;;16.59;100.00;99449.09;5109549;28;20087;-93
2023/10/06 05:50:19;;;;;;;14.80;8.27;;;;;;;16.55;100.00;99436.75;5088269;28;20016;-92
2023/10/06 05:52:51;;;;;;;15.32;7.80;;;;;;;16.60;100.00;99451.72;5096454;28;20032;-92
2023/10/06 05:55:19;;;;;;;12.30;7.20;;;;;;;16.68;100.00;99450.56;5094348;28;20040;-92
2023/10/06 05:57:52;;;;;;;12.57;7.15;;;;;;;16.64;100.00;99445.28;5089604;28;20396;-92
2023/10/06 06:00:24;;;;;;;12.05;7.90;;;;;;;16.63;100.00;99443.56;5089264;28;20070;-94
2023/10/06 06:02:52;;;;;;;15.20;8.35;;;;;;;16.50;100.00;99418.13;5089712;28;20119;-91
2023/10/06 06:05:17;;;;;;;14.23;7.95;;;;;;;16.86;100.00;99465.06;5093055;28;20055;-92
2023/10/06 06:07:43;;;;;;;15.68;8.20;;;;;;;16.75;100.00;99449.34;5091060;28;20519;-91
2023/10/06 06:10:13;;;;;;;13.30;7.30;;;;;;;16.59;100.00;99419.56;5092434;28;20434;-92
2023/10/06 06:12:41;;;;;;;13.57;8.25;;;;;;;16.96;100.00;99478.06;5095198;28;20089;-91
2023/10/06 06:15:08;;;;;;;16.90;8.57;;;;;;;16.73;100.00;99435.13;5091269;28;20047;-92
2023/10/06 06:17:34;;;;;;;13.13;7.60;;;;;;;17.01;100.00;99475.16;5086336;28;20436;-91
2023/10/06 06:20:00;;;;;;;13.13;7.85;;;;;;;16.87;100.00;99448.00;5104739;28;20078;-92
2023/10/06 06:22:27;;;;;;;13.18;8.00;;;;;;;17.22;100.00;99498.44;5087361;28;20036;-91
2023/10/06 06:24:52;;;;;;;13.15;8.32;;;;;;;17.20;100.00;99483.34;5092827;28;20513;-91
2023/10/06 06:27:18;;;;;;;13.02;7.53;;;;;;;17.38;100.00;99500.47;5090255;28;20050;-92
2023/10/06 06:29:46;;;;;;;13.43;7.28;;;;;;;17.41;100.00;99486.88;5092777;28;20531;-91
2023/10/06 06:32:14;;;;;;;14.52;8.05;;;;;;;17.52;100.00;99499.84;5088839;28;20123;-92
2023/10/06 06:34:41;;;;;;;14.52;8.30;;;;;;;17.48;100.00;99487.47;5088428;28;20036;-91
2023/10/06 06:37:09;;;;;;;13.48;8.90;;;;;;;17.69;100.00;99501.81;5090030;28;20037;-92
2023/10/06 06:39:37;;;;;;;16.60;8.60;;;;;;;17.51;100.00;99477.47;5088803;28;20039;-91
2023/10/06 06:42:04;;;;;;;16.05;7.85;;;;;;;17.78;100.00;99510.34;5090382;28;20047;-92
2023/10/06 06:44:30;;;;;;;12.43;7.78;;;;;;;17.73;100.00;99482.78;5087162;28;20056;-92
2023/10/06 06:46:57;;;;;;;15.35;9.10;;;;;;;17.52;100.00;99446.97;5085032;28;20063;-91
2023/10/06 06:49:23;;;;;;;16.45;8.75;;;;;;;17.74;100.00;99467.50;5087129;28;20055;-92
2023/10/06 06:51:52;;;;;;;18.63;8.50;;;;;;;18.01;100.00;99498.56;5092672;28;20044;-91
2023/10/06 06:54:19;;;;;;;15.52;8.32;;;;;;;18.15;100.00;99499.75;5088985;28;20055;-92
2023/10/06 06:56:47;;;;;;;16.10;9.20;;;;;;;18.29;100.00;99501.81;5089120;28;20067;-93
2023/10/06 06:59:13;;;;;;;16.45;8.38;;;;;;;18.21;100.00;99475.22;5091933;28;20040;-93
2023/10/06 07:01:38;;;;;;;13.25;6.95;;;;;;;18.33;100.00;99482.75;5104763;28;20443;-92
2023/10/06 07:04:06;;;;;;;12.52;8.02;;;;;;;18.33;100.00;99479.19;5090897;28;20043;-92
2023/10/06 07:06:32;;;;;;;12.23;7.63;;;;;;;18.55;100.00;99493.34;5085595;28;20044;-91
2023/10/06 07:08:58;;;;;;;15.02;7.80;;;;;;;18.50;100.00;99473.84;5092054;28;20550;-93
2023/10/06 07:11:23;;;;;;;12.05;7.78;;;;;;;18.79;100.00;99493.16;5087516;28;20127;-92
2023/10/06 07:13:49;;;;;;;13.63;8.55;;;;;;;19.01;100.00;99520.75;5086241;28;20040;-92
2023/10/06 07:16:15;;;;;;;14.10;7.72;;;;;;;19.09;100.00;99518.56;5086266;28;20135;-93
2023/10/06 07:18:41;;;;;;;11.50;6.75;;;;;;;19.16;100.00;99499.38;5103106;28;20451;-93
2023/10/06 07:21:09;;;;;;;12.10;8.00;;;;;;;19.45;100.00;99531.16;5087915;28;20036;-92
2023/10/06 07:23:37;;;;;;;12.07;7.72;;;;;;;19.54;100.00;99520.81;5092940;28;20066;-91
2023/10/06 07:26:08;;;;;;;13.45;7.55;;;;;;;19.66;100.00;99514.78;5092877;28;20089;-93
2023/10/06 07:28:34;;;;;;;15.07;7.90;;;;;;;19.65;100.00;99513.91;5085285;28;20037;-93
2023/10/06 07:31:00;;;;;;;18.90;7.93;;;;;;;19.79;100.00;99510.50;5099658;28;20059;-90
2023/10/06 07:33:27;;;;;;;10.55;7.28;;;;;;;19.89;100.00;99514.47;5088799;28;20100;-92
2023/10/06 07:35:53;;;;;;;11.73;7.72;;;;;;;20.10;100.00;99527.75;5089228;28;20040;-92
2023/10/06 07:38:21;;;;;;;13.00;8.30;;;;;;;20.01;100.00;99502.13;5091507;28;20040;-92
2023/10/06 07:40:47;;;;;;;14.07;7.07;;;;;;;20.14;100.00;99514.97;5091679;28;20102;-94
2023/10/06 07:43:15;;;;;;;13.85;7.82;;;;;;;20.20;100.00;99515.50;5090059;28;20046;-91
2023/10/06 07:45:41;;;;;;;12.80;8.27;;;;;;;20.42;100.00;99517.88;5085053;28;20556;-93
2023/10/06 07:48:07;;;;;;;16.92;8.45;;;;;;;20.35;100.00;99505.69;5089746;28;20140;-91
2023/10/06 07:50:34;;;;;;;13.82;7.00;;;;;;;20.17;100.00;99493.19;5087299;28;20423;-90
2023/10/06 07:53:01;;;;;;;15.48;8.55;;;;;;;20.49;100.00;99515.72;5084654;28;20039;-93
2023/10/06 07:55:28;;;;;;;20.15;8.60;;;;;;;20.37;100.00;99513.72;5088940;28;20036;-93
2023/10/06 07:57:54;;;;;;;14.45;10.05;;;;;;;20.58;100.00;99507.16;5083597;28;20044;-93
2023/10/06 08:00:29;;;;;;;12.23;8.32;;;;;;;20.94;100.00;99522.22;5086730;28;20042;-91
2023/10/06 08:02:55;;;;;;;13.05;7.45;;;;;;;21.02;100.00;99503.72;5087977;28;20433;-92
2023/10/06 08:05:21;;;;;;;13.00;8.25;;;;;;;21.35;100.00;99537.84;5086445;28;20040;-91
2023/10/06 08:07:47;;;;;;;14.05;8.57;;;;;;;21.12;100.00;99486.00;5087497;28;20123;-92
2023/10/06 08:10:14;;;;;;;12.93;8.23;;;;;;;21.31;100.00;99541.69;5087222;28;20055;-92
2023/10/06 08:12:44;;;;;;;14.32;7.88;;;;;;;21.46;100.00;99532.69;5089555;28;20048;-92
2023/10/06 08:15:10;;;;;;;;;;;;;;;21.57;100.00;99542.88;5087511;28;20044;-91
2023/10/06 08:17:36;;;;;;;12.52;7.43;;;;;;;21.52;100.00;99526.94;5087890;28;20023;-92
2023/10/06 08:20:02;;;;;;;12.95;8.13;;;;;;;21.09;100.00;99525.84;5084945;28;20703;-91
2023/10/06 08:22:29;;;;;;;9.82;7.00;;;;;;;21.18;100.00;99522.59;5086425;28;20046;-92
2023/10/06 08:24:55;;;;;;;12.02;7.30;;;;;;;21.36;100.00;99525.19;5079913;28;20032;-92
2023/10/06 08:27:23;;;;;;;9.30;6.15;;;;;;;21.60;100.00;99529.19;5065647;28;20409;-92
2023/10/06 08:29:51;;;;;;;13.25;7.88;;;;;;;21.17;100.00;99526.28;5080419;28;20036;-92
2023/10/06 08:32:17;;;;;;;13.65;8.00;;;;;;;21.43;100.00;99541.00;5063900;28;20044;-93
2023/10/06 08:34:46;;;;;;;12.73;8.77;;;;;;;21.20;100.00;99499.03;5063580;28;20048;-91
2023/10/06 08:37:11;;;;;;;11.68;8.70;;;;;;;21.68;100.00;99504.34;5061726;28;20090;-92
2023/10/06 08:39:39;;;;;;;11.05;7.32;;;;;;;22.07;100.00;99503.69;5068598;28;20044;-92
2023/10/06 08:42:09;;;;;;;11.98;8.05;;;;;;;22.30;100.00;99528.53;5067557;28;20033;-93
2023/10/06 08:44:38;;;;;;;11.73;7.47;;;;;;;22.18;100.00;99511.16;5067097;28;20083;-93
2023/10/06 08:47:10;;;;;;;12.65;7.57;;;;;;;22.51;100.00;99520.84;5069972;28;20037;-91
2023/10/06 08:49:37;;;;;;;10.80;7.40;;;;;;;22.69;100.00;99526.94;5068678;28;20623;-92
2023/10/06 08:52:04;;;;;;;13.40;7.93;;;;;;;22.79;100.00;99538.03;5068881;28;20041;-92
2023/10/06 08:54:31;;;;;;;14.48;7.22;;;;;;;22.83;100.00;99516.03;5065642;28;20037;-93
2023/10/06 08:56:57;;;;;;;14.90;7.57;;;;;;;22.95;100.00;99506.22;5066260;28;20059;-93
2023/10/06 08:59:22;;;;;;;12.88;7.60;;;;;;;23.13;100.00;99505.03;5072343;28;20482;-93
2023/10/06 09:01:49;;;;;;;13.95;7.18;;;;;;;23.58;100.00;99538.16;5063756;28;20033;-93
2023/10/06 09:04:16;;;;;;;17.15;8.02;;;;;;;23.49;100.00;99476.34;5069341;28;20021;-93
2023/10/06 09:07:12;;;;;;;13.30;8.55;;;;;;;23.85;100.00;99530.97;5067898;28;20041;-93
2023/10/06 09:09:38;;;;;;;12.20;7.13;;;;;;;23.97;100.00;99532.81;5067461;28;20044;-92
2023/10/06 09:12:04;;;;;;;12.52;8.13;;;;;;;23.93;99.06;99499.56;5065813;28;20052;-92
2023/10/06 09:14:30;;;;;;;13.23;7.57;;;;;;;24.26;97.38;99527.16;5084953;28;20047;-93
2023/10/06 09:17:01;;;;;;;12.77;7.20;;;;;;;24.30;97.13;99515.09;5068587;28;20539;-92
2023/10/06 09:19:49;;;;;;;17.67;8.27;;;;;;;24.53;94.79;99530.66;5065302;28;20041;-93
2023/10/06 09:22:16;;;;;;;;;;;;;;;24.47;94.29;99528.34;5070482;28;20051;-92
2023/10/06 09:25:04;;;;;;;12.63;7.13;;;;;;;24.30;95.50;99485.19;5090352;28;19920;-94
2023/10/06 09:27:31;;;;;;;10.98;7.25;;;;;;;24.27;93.62;99480.84;5095281;28;20051;-93
2023/10/06 09:30:01;;;;;;;14.38;7.47;;;;;;;24.27;95.73;99509.88;5109087;28;20051;-92
2023/10/06 09:32:27;;;;;;;11.27;8.13;;;;;;;24.03;95.68;99485.31;5112401;28;20126;-92
2023/10/06 09:34:57;;;;;;;10.10;7.07;;;;;;;24.18;96.10;99470.63;5091204;28;20051;-93
2023/10/06 09:37:24;;;;;;;10.35;6.80;;;;;;;24.49;94.18;99487.47;5090298;28;20564;-92
2023/10/06 09:39:58;;;;;;;10.00;6.57;;;;;;;24.68;92.91;99506.00;5087464;28;20036;-93
2023/10/06 09:42:29;;;;;;;9.23;6.85;;;;;;;24.58;91.73;99487.66;5109311;28;20085;-92
2023/10/06 09:45:06;;;;;;;10.57;6.78;;;;;;;24.29;93.72;99457.16;5085914;28;20032;-91
2023/10/06 09:47:36;;;;;;;10.93;7.30;;;;;;;24.75;92.97;99501.88;5108838;28;20055;-92
2023/10/06 09:50:06;;;;;;;9.93;6.95;;;;;;;24.91;92.79;99467.09;5107761;28;20578;-93
2023/10/06 09:52:34;;;;;;;9.10;6.68;;;;;;;25.22;90.35;99481.09;5087276;28;20107;-93
2023/10/06 09:55:04;;;;;;;12.82;7.20;;;;;;;25.43;87.80;99494.94;5089204;28;20046;-93
2023/10/06 09:57:32;;;;;;;9.10;7.22;;;;;;;25.49;88.39;99494.47;5086802;28;20071;-92
2023/10/06 10:00:00;;;;;;;10.65;7.38;;;;;;;25.44;86.48;99466.75;5090014;28;20051;-95
2023/10/06 10:02:26;;;;;;;11.35;6.78;;;;;;;25.69;85.52;99481.16;5087585;28;20086;-92
2023/10/06 10:04:54;;;;;;;9.32;7.00;;;;;;;25.31;84.68;99479.53;5084227;28;20032;-93
2023/10/06 10:07:23;;;;;;;14.50;6.40;;;;;;;25.36;83.87;99474.63;5090029;28;20044;-93
2023/10/06 10:09:49;;;;;;;13.07;5.97;;;;;;;25.58;84.12;99463.78;5088880;28;20040;-94
2023/10/06 10:12:28;;;;;;;10.43;6.30;;;;;;;25.05;84.15;99440.69;5092150;28;20032;-92
2023/10/06 10:15:03;;;;;;;12.27;6.47;;;;;;;25.14;85.22;99467.22;5089178;28;20019;-93
2023/10/06 10:17:43;;;;;;;9.50;6.03;;;;;;;25.20;84.24;99475.81;5089883;28;20070;-95
2023/10/06 10:20:12;;;;;;;10.93;6.60;;;;;;;25.27;83.21;99473.47;5093282;28;20040;-93
2023/10/06 10:22:41;;;;;;;13.88;6.85;;;;;;;25.46;79.58;99448.44;5089538;28;20035;-95
2023/10/06 10:25:08;;;;;;;11.00;7.20;;;;;;;25.52;82.96;99447.91;5107725;28;20036;-93
2023/10/06 10:27:37;;;;;;;7.70;6.00;;;;;;;25.54;80.88;99450.53;5088170;28;20110;-94
2023/10/06 10:30:13;;;;;;;9.05;6.72;;;;;;;25.84;79.73;99449.97;5088252;28;20039;-94
2023/10/06 10:32:41;;;;;;;11.43;7.13;;;;;;;25.81;79.38;99455.69;5092465;28;20036;-92
2023/10/06 10:35:12;;;;;;;10.75;6.75;;;;;;;25.78;76.81;99418.63;5091464;28;20040;-93
2023/10/06 10:38:11;;;;;;;8.55;6.57;;;;;;;25.73;79.49;99449.97;5088161;28;21516;-95
2023/10/06 10:40:48;;;;;;;9.75;6.72;;;;;;;25.74;75.29;99438.06;5032027;28;20055;-93
2023/10/06 10:43:15;;;;;;;10.60;6.68;;;;;;;25.43;73.19;99418.69;5030436;28;20561;-92
2023/10/06 10:45:45;;;;;;;10.25;6.80;;;;;;;25.24;64.75;99412.94;5025283;28;20576;-91
2023/10/06 10:48:13;;;;;;;9.63;7.03;;;;;;;25.90;61.10;99449.53;5031911;28;20048;-94
2023/10/06 10:51:10;;;;;;;11.07;6.40;;;;;;;25.69;61.76;99438.44;5020175;28;20092;-94
2023/10/06 10:53:44;;;;;;;8.93;6.57;;;;;;;26.07;60.25;99441.84;5010825;28;20037;-92
2023/10/06 10:56:13;;;;;;;9.90;7.45;;;;;;;26.11;60.74;99421.53;5031214;28;20063;-93
2023/10/06 10:58:57;;;;;;;9.80;6.30;;;;;;;25.96;59.92;99390.94;5032177;28;20052;-94
2023/10/06 11:01:27;;;;;;;8.45;6.50;;;;;;;25.97;61.02;99431.69;5046800;28;20037;-92
2023/10/06 11:04:21;;;;;;;11.48;7.05;;;;;;;26.09;61.92;99424.38;5034655;28;20130;-93
2023/10/06 11:06:48;;;;;;;9.27;6.90;;;;;;;26.01;60.82;99399.59;5029779;28;20060;-93
2023/10/06 11:12:22;;;;;;;12.75;6.00;;;;;;;26.50;59.59;99406.50;5153664;27;20393;-94
2023/10/06 11:14:49;;;;;;;8.00;5.45;;;;;;;26.61;56.64;99409.22;5135377;27;20111;-94
2023/10/06 11:17:20;;;;;;;10.43;5.20;;;;;;;26.58;57.26;99405.88;5137438;27;20093;-92
2023/10/06 11:19:46;;;;;;;7.70;5.15;;;;;;;26.54;57.16;99391.59;5140157;27;20094;-94
2023/10/06 11:22:14;;;;;;;9.25;5.78;;;;;;;26.35;57.26;99375.00;5140050;27;20399;-96
2023/10/06 11:24:41;;;;;;;10.75;5.28;;;;;;;26.53;56.43;99381.69;5131742;27;20038;-91
2023/10/06 11:27:17;;;;;;;8.20;5.55;;;;;;;26.31;55.17;99363.50;5136824;27;20487;-93
2023/10/06 11:29:45;;;;;;;9.57;5.50;;;;;;;26.56;54.76;99399.69;5131626;27;20559;-94
2023/10/06 11:32:11;;;;;;;8.93;5.55;;;;;;;26.44;53.94;99368.81;5133471;27;20031;-93
2023/10/06 11:34:37;;;;;;;11.02;5.13;;;;;;;26.82;52.29;99381.13;5134981;27;20705;-94
2023/10/06 11:37:05;;;;;;;9.75;5.03;;;;;;;26.75;53.06;99350.75;5135470;27;20039;-93
2023/10/06 11:39:31;;;;;;;7.82;4.72;;;;;;;26.64;51.33;99337.16;5136585;27;20490;-95